LPHR/HOR METAR and TAF weather

Enter ICAO airport designator
Station Type Date Time Source
LPHR METAR 2022/06/27 08:00 UTC NOAA

LPHR 270800Z 07004KT 360V120 9999 FEW012 BKN030 19/15 Q1028


Station Type Date Time Source
LPHR Decoded METAR 2022/06/27 08:00 UTC NOAA

Horta / Castelo Branco Acores , Portugal (LPHR) 38-31N 028-43W 41M
Jun 27, 2022 - 04:00 AM EDT / 2022.06.27 0800 UTC
Wind: from the ENE (070 degrees) at 5 MPH (4 KT) (direction variable):0
Visibility: greater than 7 mile(s):0
Sky conditions: mostly cloudy
Temperature: 66 F (19 C)
Dew Point: 59 F (15 C)
Relative Humidity: 77%
Pressure (altimeter): 30.36 in. Hg (1028 hPa)
ob: LPHR 270800Z 07004KT 360V120 9999 FEW012 BKN030 19/15 Q1028
cycle: 8

Station Type Date Time Source
LPHR TAF 2021/10/07 06:43 UTC NOAA

TAF LPHR 070630Z 0706/0724 33008KT 9999 FEW015 SCT030 PROB30
TEMPO 0706/0712 5000 SHRA SCT006 BKN012 FEW015CB

Example: see airport list